Time;durP1;ratioP1;P1;durP2;ratioP2;P2;SDS_P1;SDS_P2;PMS_P1;PMS_P2;Temp;Humidity;BMP_temperature;BMP_pressure;BME280_temperature;BME280_humidity;BME280_pressure;Samples;Min_cycle;Max_cycle;Signal;HPM_P1;HPM_P2
2023/03/24 00:00:33;;;;;;;5.53;2.90;;;;;;;15.39;77.12;99664.56;5073926;28;20040;-67
2023/03/24 00:03:01;;;;;;;5.88;2.90;;;;;;;15.49;76.82;99677.84;5069486;28;20518;-66
2023/03/24 00:05:29;;;;;;;5.53;2.78;;;;;;;15.61;76.02;99666.53;5065555;28;20060;-65
2023/03/24 00:07:58;;;;;;;5.50;2.45;;;;;;;15.48;76.66;99669.88;5063403;28;20064;-68
2023/03/24 00:10:33;;;;;;;6.95;3.03;;;;;;;15.60;76.58;99681.56;5072558;28;20067;-67
2023/03/24 00:13:01;;;;;;;6.15;3.13;;;;;;;15.52;76.18;99679.88;5070074;28;20041;-66
2023/03/24 00:15:29;;;;;;;5.68;3.05;;;;;;;15.31;77.27;99684.22;5053839;28;20067;-67
2023/03/24 00:17:56;;;;;;;5.82;2.60;;;;;;;15.38;77.56;99690.69;5075683;28;20056;-67
2023/03/24 00:20:25;;;;;;;10.35;2.45;;;;;;;15.46;77.15;99686.88;5074534;28;20479;-66
2023/03/24 00:22:57;;;;;;;5.85;2.80;;;;;;;15.37;77.53;99689.09;5075627;28;20060;-67
2023/03/24 00:25:28;;;;;;;5.07;2.40;;;;;;;15.61;76.73;99688.75;5075664;28;20071;-66
2023/03/24 00:27:57;;;;;;;4.28;2.25;;;;;;;15.58;75.98;99672.84;5071298;28;20052;-66
2023/03/24 00:30:25;;;;;;;6.55;2.80;;;;;;;15.54;76.51;99682.28;5072012;28;20049;-66
2023/03/24 00:32:53;;;;;;;3.78;2.05;;;;;;;15.47;77.03;99680.19;5029754;28;20060;-69
2023/03/24 00:35:20;;;;;;;4.20;2.00;;;;;;;15.41;76.96;99678.88;5071874;28;20068;-67
2023/03/24 00:37:50;;;;;;;5.43;2.28;;;;;;;15.17;78.28;99693.09;5072837;28;20056;-68
2023/03/24 00:40:19;;;;;;;5.18;2.22;;;;;;;15.04;78.98;99700.00;5075440;28;20068;-66
2023/03/24 00:42:48;;;;;;;3.80;1.98;;;;;;;15.29;78.37;99706.00;5066495;28;20056;-66
2023/03/24 00:45:21;;;;;;;4.03;1.80;;;;;;;15.18;78.88;99708.56;5067095;28;20056;-65
2023/03/24 00:47:53;;;;;;;5.30;1.80;;;;;;;15.30;78.46;99721.47;5065382;28;20455;-66
2023/03/24 00:50:25;;;;;;;6.25;2.40;;;;;;;15.32;78.87;99719.13;5068022;28;20048;-67
2023/03/24 00:52:54;;;;;;;3.80;1.73;;;;;;;15.35;78.35;99737.81;5069465;28;20406;-66
2023/03/24 00:55:22;;;;;;;5.97;2.28;;;;;;;15.12;79.16;99746.09;5071495;28;20041;-66
2023/03/24 00:57:50;;;;;;;4.20;2.03;;;;;;;15.09;79.28;99732.97;5072073;28;20385;-65
2023/03/24 01:00:23;;;;;;;7.35;2.47;;;;;;;15.36;78.52;99731.09;5056205;28;20041;-65
2023/03/24 01:02:54;;;;;;;5.80;2.30;;;;;;;15.19;78.73;99729.59;5073436;28;20048;-65
2023/03/24 01:05:23;;;;;;;;;;;;;;;15.21;78.55;99713.38;5063486;28;20045;-65
2023/03/24 01:07:55;;;;;;;4.95;2.13;;;;;;;15.24;78.81;99723.72;5064893;28;19921;-66
2023/03/24 01:10:25;;;;;;;5.88;2.47;;;;;;;15.41;78.53;99711.41;5057020;28;20371;-67
2023/03/24 01:12:57;;;;;;;3.97;2.10;;;;;;;15.46;78.01;99711.09;5073560;28;20068;-65
2023/03/24 01:15:32;;;;;;;5.07;2.13;;;;;;;15.38;78.20;99720.41;5075243;28;20060;-66
2023/03/24 01:18:02;;;;;;;4.20;2.03;;;;;;;15.29;78.56;99722.66;5041408;28;20072;-65
2023/03/24 01:20:31;;;;;;;;;;;;;;;15.16;78.84;99733.09;5073320;28;20053;-67
2023/03/24 01:23:00;;;;;;;5.73;2.30;;;;;;;15.23;78.62;99737.97;5074238;28;20303;-66
2023/03/24 01:25:29;;;;;;;4.55;1.95;;;;;;;15.12;78.71;99723.91;5074823;28;20056;-66
2023/03/24 01:27:57;;;;;;;4.32;1.90;;;;;;;15.23;78.17;99724.09;5075204;28;20056;-66
2023/03/24 01:30:26;;;;;;;4.90;2.00;;;;;;;15.25;77.47;99730.91;5073275;28;20056;-65
2023/03/24 01:32:54;;;;;;;5.15;1.80;;;;;;;15.39;77.44;99736.72;5057193;28;20048;-65
2023/03/24 01:35:24;;;;;;;6.60;1.90;;;;;;;15.07;77.47;99723.41;5075090;28;20063;-65
2023/03/24 01:37:57;;;;;;;4.60;1.80;;;;;;;15.18;77.65;99722.44;5074010;28;20140;-65
2023/03/24 01:40:28;;;;;;;5.78;2.20;;;;;;;15.47;76.46;99723.78;5073518;28;20399;-66
2023/03/24 01:42:57;;;;;;;5.43;1.75;;;;;;;15.33;76.01;99734.59;5072166;28;20048;-66
2023/03/24 01:45:50;;;;;;;3.72;1.42;;;;;;;15.13;76.70;99731.03;5072546;28;20048;-66
2023/03/24 01:48:29;;;;;;;4.30;1.45;;;;;;;15.30;76.50;99741.69;5061571;28;20055;-66
2023/03/24 01:51:08;;;;;;;2.90;1.60;;;;;;;15.29;76.66;99750.41;5059319;28;20052;-66
2023/03/24 01:53:37;;;;;;;4.00;1.90;;;;;;;15.16;77.89;99744.19;5076655;28;20049;-65
2023/03/24 01:56:06;;;;;;;5.07;1.70;;;;;;;15.07;77.80;99748.38;5059658;28;20041;-66
2023/03/24 01:58:41;;;;;;;5.03;1.88;;;;;;;15.11;77.77;99750.06;5061722;28;20059;-66
2023/03/24 02:01:16;;;;;;;4.20;1.80;;;;;;;15.12;76.99;99745.28;5055459;28;20056;-65
2023/03/24 02:03:46;;;;;;;6.43;2.33;;;;;;;15.11;77.10;99729.81;5047105;28;20048;-65
2023/03/24 02:06:15;;;;;;;4.50;1.70;;;;;;;15.16;76.96;99729.53;5044807;28;20052;-65
2023/03/24 02:08:54;;;;;;;5.80;2.10;;;;;;;15.35;76.02;99730.28;5057826;28;20412;-66
2023/03/24 02:11:30;;;;;;;4.80;1.45;;;;;;;15.11;76.94;99725.09;5049472;28;20144;-66
2023/03/24 02:14:02;;;;;;;5.57;1.98;;;;;;;15.28;76.65;99723.81;5049483;28;20051;-65
2023/03/24 02:16:42;;;;;;;6.90;1.90;;;;;;;15.24;76.48;99707.09;5075913;28;20062;-66
2023/03/24 02:19:25;;;;;;;7.95;2.25;;;;;;;15.00;77.77;99735.16;5078618;28;20048;-65
2023/03/24 02:22:14;;;;;;;5.90;1.95;;;;;;;14.87;78.78;99738.47;5074984;28;20044;-66
2023/03/24 02:25:06;;;;;;;4.40;2.20;;;;;;;14.84;79.54;99739.19;5078773;28;20052;-64
2023/03/24 02:27:58;;;;;;;4.88;1.90;;;;;;;14.80;80.13;99730.81;5077086;28;20052;-67
2023/03/24 02:30:45;;;;;;;7.20;2.10;;;;;;;14.95;79.50;99749.31;5058468;28;20048;-64
2023/03/24 02:33:24;;;;;;;4.38;1.95;;;;;;;14.73;80.33;99761.16;5068171;28;20053;-65
2023/03/24 02:36:10;;;;;;;5.97;2.20;;;;;;;14.71;80.63;99754.34;5044618;28;20058;-66
2023/03/24 02:39:17;;;;;;;6.68;2.33;;;;;;;14.80;80.75;99766.84;5040731;28;20400;-65
2023/03/24 02:42:09;;;;;;;8.65;2.35;;;;;;;14.83;80.34;99765.31;5075295;28;20082;-64
2023/03/24 02:45:16;;;;;;;5.75;2.45;;;;;;;14.91;80.67;99769.81;5063172;28;20056;-66
2023/03/24 02:47:55;;;;;;;4.88;2.20;;;;;;;15.04;79.77;99757.41;5065839;28;20049;-65
2023/03/24 02:50:39;;;;;;;7.38;2.10;;;;;;;14.98;79.29;99768.00;5074026;28;20488;-65
2023/03/24 02:53:15;;;;;;;7.82;2.22;;;;;;;15.11;78.49;99769.47;5059404;28;20056;-66
2023/03/24 02:56:28;;;;;;;6.20;1.95;;;;;;;14.91;78.94;99769.81;5063326;28;20052;-67
2023/03/24 02:59:07;;;;;;;6.22;2.25;;;;;;;14.95;78.06;99754.88;5060529;28;20056;-65
2023/03/24 03:01:52;;;;;;;5.72;2.13;;;;;;;14.83;78.47;99757.00;5058555;28;20048;-65
2023/03/24 03:04:48;;;;;;;6.45;2.03;;;;;;;15.12;77.34;99761.94;5057249;28;20067;-66
2023/03/24 03:07:20;;;;;;;5.15;2.10;;;;;;;15.16;76.49;99773.91;5042224;28;20044;-65
2023/03/24 03:09:54;;;;;;;6.35;1.90;;;;;;;14.79;77.33;99784.63;5053039;28;20071;-66
2023/03/24 03:12:23;;;;;;;5.30;1.65;;;;;;;14.71;77.56;99790.41;5070137;28;20411;-66
2023/03/24 03:14:54;;;;;;;6.30;1.87;;;;;;;14.77;76.58;99792.50;5059411;28;20056;-66
2023/03/24 03:17:29;;;;;;;7.03;2.08;;;;;;;14.61;76.11;99792.56;5074602;28;20064;-65
2023/03/24 03:20:05;;;;;;;6.53;1.70;;;;;;;14.55;76.39;99794.03;5075789;28;20612;-65
2023/03/24 03:22:48;;;;;;;6.28;1.58;;;;;;;14.46;76.44;99792.63;5057559;28;20056;-65
2023/03/24 03:25:21;;;;;;;8.43;1.60;;;;;;;14.29;76.21;99804.91;5008918;28;20416;-66
2023/03/24 03:27:51;;;;;;;7.88;1.70;;;;;;;14.36;76.25;99809.81;5076525;28;20055;-66
2023/03/24 03:30:30;;;;;;;4.78;1.40;;;;;;;14.23;76.06;99803.53;5074470;28;20467;-67
2023/03/24 03:33:03;;;;;;;10.57;1.90;;;;;;;14.30;76.04;99805.69;5074547;28;20064;-65
2023/03/24 03:35:44;;;;;;;9.45;1.90;;;;;;;14.41;75.11;99817.84;5057927;28;20056;-65
2023/03/24 03:38:22;;;;;;;7.13;1.45;;;;;;;14.15;75.45;99814.81;5074968;28;20048;-65
2023/03/24 03:40:54;;;;;;;5.97;1.20;;;;;;;14.14;75.29;99824.28;5056009;28;20423;-66
2023/03/24 03:43:29;;;;;;;7.60;1.88;;;;;;;14.15;75.13;99821.16;5075665;28;20056;-65
2023/03/24 03:45:57;;;;;;;10.80;1.83;;;;;;;14.00;74.86;99819.19;5073804;28;20106;-66
2023/03/24 03:48:31;;;;;;;7.22;1.42;;;;;;;14.00;74.98;99819.19;5074478;28;20434;-65
2023/03/24 03:50:58;;;;;;;9.60;2.08;;;;;;;13.93;74.72;99823.75;5071572;28;20419;-65
2023/03/24 03:53:47;;;;;;;12.82;2.05;;;;;;;13.98;74.53;99813.19;5075574;28;20052;-65
2023/03/24 03:56:22;;;;;;;8.38;1.58;;;;;;;13.94;74.26;99811.50;5074116;28;20071;-64
2023/03/24 03:59:03;;;;;;;8.93;1.40;;;;;;;13.87;74.42;99819.63;5059827;28;20059;-66
2023/03/24 04:01:35;;;;;;;8.17;1.93;;;;;;;13.99;74.12;99827.84;5065731;28;20058;-65
2023/03/24 04:05:17;;;;;;;9.10;1.60;;;;;;;14.02;73.58;99838.19;5062800;28;20417;-65
2023/03/24 04:08:25;;;;;;;8.15;1.63;;;;;;;14.14;73.32;99827.84;5073391;28;20067;-66
2023/03/24 04:11:09;;;;;;;9.35;2.05;;;;;;;13.97;73.41;99819.91;5073197;28;20048;-66
2023/03/24 04:14:00;;;;;;;7.80;1.50;;;;;;;14.05;73.58;99823.66;5049322;28;20115;-65
2023/03/24 04:16:43;;;;;;;8.50;1.45;;;;;;;13.97;73.16;99824.63;5045915;28;20048;-65
2023/03/24 04:19:28;;;;;;;10.27;2.40;;;;;;;13.96;73.24;99832.16;5060260;28;20052;-66
2023/03/24 04:22:16;;;;;;;8.80;2.03;;;;;;;13.95;72.48;99843.56;5068655;28;20041;-65
2023/03/24 04:24:50;;;;;;;7.20;1.38;;;;;;;13.94;72.28;99836.44;5057570;28;20484;-66
2023/03/24 04:27:37;;;;;;;8.77;1.70;;;;;;;14.10;71.04;99843.59;5052174;28;20052;-65
2023/03/24 04:30:24;;;;;;;11.00;1.85;;;;;;;14.05;71.34;99859.66;5040148;28;20483;-66
2023/03/24 04:33:02;;;;;;;11.68;2.17;;;;;;;13.97;70.49;99860.63;5053258;28;20041;-66
2023/03/24 04:35:57;;;;;;;14.13;1.75;;;;;;;14.07;70.65;99868.41;5041851;28;20045;-66
2023/03/24 04:38:37;;;;;;;8.15;1.77;;;;;;;13.89;70.08;99867.16;5058192;28;20048;-66
2023/03/24 04:41:26;;;;;;;9.95;1.65;;;;;;;14.00;70.32;99866.25;5058635;28;20048;-67
2023/03/24 04:44:09;;;;;;;10.75;1.80;;;;;;;13.84;70.53;99868.22;5043206;28;20045;-65
2023/03/24 04:46:54;;;;;;;8.77;1.67;;;;;;;13.92;70.60;99872.78;5051748;28;20067;-65
2023/03/24 04:49:26;;;;;;;11.90;2.03;;;;;;;13.71;71.13;99883.28;5071525;28;20045;-66
2023/03/24 04:51:53;;;;;;;8.80;1.90;;;;;;;13.99;70.90;99886.81;5067559;28;20052;-66
2023/03/24 04:54:24;;;;;;;10.93;2.15;;;;;;;13.88;71.31;99890.47;5075266;28;20072;-66
2023/03/24 04:57:00;;;;;;;12.45;2.00;;;;;;;13.83;71.57;99888.75;5072261;28;20048;-66
2023/03/24 04:59:47;;;;;;;12.73;1.80;;;;;;;13.70;72.63;99903.00;5047080;28;20055;-67
2023/03/24 05:02:19;;;;;;;12.50;1.70;;;;;;;13.65;72.63;99903.28;5051431;28;20048;-66
2023/03/24 05:04:54;;;;;;;10.57;2.50;;;;;;;13.70;73.25;99911.31;5038804;28;20053;-67
2023/03/24 05:07:36;;;;;;;11.52;2.20;;;;;;;13.72;72.60;99906.25;5056285;28;20396;-65
2023/03/24 05:10:15;;;;;;;11.98;2.03;;;;;;;13.73;73.06;99908.66;5074748;28;20349;-66
2023/03/24 05:12:48;;;;;;;15.75;2.40;;;;;;;13.74;73.21;99906.69;5052167;28;20049;-66
2023/03/24 05:15:36;;;;;;;9.93;1.80;;;;;;;13.77;73.21;99909.56;5056515;28;20075;-66
2023/03/24 05:18:19;;;;;;;11.98;2.42;;;;;;;13.73;73.36;99914.19;5074901;28;20127;-66
2023/03/24 05:20:46;;;;;;;13.02;2.78;;;;;;;13.66;73.70;99922.28;5075582;28;20063;-64
2023/03/24 05:23:18;;;;;;;13.85;2.53;;;;;;;13.62;74.06;99928.84;5062745;28;20123;-65
2023/03/24 05:25:47;;;;;;;12.65;2.03;;;;;;;13.65;74.34;99928.19;5075953;28;20051;-65
2023/03/24 05:28:16;;;;;;;10.05;1.83;;;;;;;13.50;74.44;99933.31;5057000;28;20049;-66
2023/03/24 05:30:43;;;;;;;12.20;2.17;;;;;;;13.67;73.81;99934.16;5061090;28;20052;-66
2023/03/24 05:33:28;;;;;;;12.93;2.03;;;;;;;13.56;74.35;99934.66;5049865;28;20048;-66
2023/03/24 05:35:56;;;;;;;14.07;2.80;;;;;;;13.44;74.53;99937.47;5076368;28;20075;-66
2023/03/24 05:38:24;;;;;;;10.88;2.08;;;;;;;13.27;74.76;99936.94;5077387;28;20052;-65
2023/03/24 05:40:57;;;;;;;10.63;2.00;;;;;;;13.55;74.17;99940.53;5075144;28;20063;-66
2023/03/24 05:43:30;;;;;;;15.38;2.75;;;;;;;13.38;73.52;99949.94;5066881;28;20041;-65
2023/03/24 05:46:07;;;;;;;14.23;2.15;;;;;;;13.55;72.87;99951.59;5075093;28;20418;-66
2023/03/24 05:48:34;;;;;;;14.45;2.60;;;;;;;13.32;73.53;99948.56;5072440;28;20053;-65
2023/03/24 05:51:21;;;;;;;15.35;2.17;;;;;;;13.05;74.01;99949.34;5073947;28;20470;-65
2023/03/24 05:54:04;;;;;;;13.45;2.25;;;;;;;13.15;74.53;99948.84;5077816;28;20056;-66
2023/03/24 05:56:39;;;;;;;15.80;2.92;;;;;;;13.13;74.29;99944.81;5076492;28;20048;-66
2023/03/24 05:59:34;;;;;;;14.57;2.53;;;;;;;12.99;74.74;99958.19;5065571;28;20526;-66
2023/03/24 06:02:25;;;;;;;16.85;2.47;;;;;;;12.71;75.41;99969.13;5063845;28;20048;-67
2023/03/24 06:05:02;;;;;;;16.98;2.70;;;;;;;12.77;74.71;99981.56;5062284;28;20060;-66
2023/03/24 06:07:31;;;;;;;12.63;2.53;;;;;;;12.74;74.08;99979.50;5076388;28;20059;-65
2023/03/24 06:10:06;;;;;;;14.13;2.58;;;;;;;12.55;75.28;99989.50;5068363;28;20044;-66
2023/03/24 06:12:44;;;;;;;13.52;2.55;;;;;;;12.72;75.45;99986.53;5072369;28;20041;-67
2023/03/24 06:15:16;;;;;;;14.07;2.65;;;;;;;12.86;74.48;99993.31;5056553;28;20045;-67
2023/03/24 06:17:46;;;;;;;16.75;2.80;;;;;;;12.74;74.24;99995.28;5042696;28;20048;-66
2023/03/24 06:20:24;;;;;;;12.20;2.58;;;;;;;12.92;73.44;100002.97;5075912;28;20055;-66
2023/03/24 06:23:06;;;;;;;19.13;2.88;;;;;;;12.89;73.75;100011.16;5075712;28;20039;-66
2023/03/24 06:25:49;;;;;;;14.32;2.97;;;;;;;12.75;73.83;100018.97;5058536;28;20049;-65
2023/03/24 06:28:29;;;;;;;19.77;2.83;;;;;;;12.94;73.32;100019.22;5068346;28;20048;-66
2023/03/24 06:31:00;;;;;;;14.73;2.95;;;;;;;13.02;73.25;100024.66;5044795;28;20299;-64
2023/03/24 06:33:37;;;;;;;19.35;3.13;;;;;;;12.96;73.00;100025.22;5058223;28;20048;-66
2023/03/24 06:36:06;;;;;;;18.45;3.35;;;;;;;12.92;73.51;100035.38;5068041;28;20052;-66
2023/03/24 06:38:33;;;;;;;13.20;2.58;;;;;;;12.95;73.51;100031.91;5058525;28;20053;-66
2023/03/24 06:41:04;;;;;;;21.47;3.43;;;;;;;12.94;73.11;100041.34;5062528;28;20057;-65
2023/03/24 06:43:31;;;;;;;13.48;2.63;;;;;;;13.01;73.37;100039.63;5060171;28;20056;-65
2023/03/24 06:45:59;;;;;;;14.07;2.63;;;;;;;12.56;74.71;100047.19;5071764;28;20052;-66
2023/03/24 06:48:28;;;;;;;18.45;3.42;;;;;;;12.78;74.07;100046.75;5075992;28;20045;-66
2023/03/24 06:51:02;;;;;;;13.88;2.63;;;;;;;12.76;74.03;100046.28;5066370;28;20164;-66
2023/03/24 06:53:30;;;;;;;16.48;2.95;;;;;;;12.63;74.32;100041.09;5076581;28;20045;-65
2023/03/24 06:55:57;;;;;;;17.30;3.10;;;;;;;12.72;74.20;100047.31;5072428;28;20059;-64
2023/03/24 06:58:27;;;;;;;16.95;3.28;;;;;;;12.81;73.95;100050.78;5060212;28;20048;-65
2023/03/24 07:01:03;;;;;;;14.88;2.92;;;;;;;12.70;74.16;100050.44;5074092;28;20712;-65
2023/03/24 07:03:53;;;;;;;18.63;2.40;;;;;;;12.69;74.17;100053.53;5076804;28;20480;-66
2023/03/24 07:06:34;;;;;;;17.40;2.80;;;;;;;12.45;73.90;100057.84;5069182;28;20507;-66
2023/03/24 07:09:26;;;;;;;17.90;2.42;;;;;;;12.58;73.52;100067.00;5037759;28;20045;-67
2023/03/24 07:11:54;;;;;;;23.67;3.55;;;;;;;12.41;74.33;100056.13;5065230;28;20403;-65
2023/03/24 07:14:24;;;;;;;19.77;3.38;;;;;;;12.53;75.57;100064.44;5068331;28;20041;-65
2023/03/24 07:16:53;;;;;;;20.95;3.83;;;;;;;12.61;74.15;100071.00;5053552;28;20052;-67
2023/03/24 07:19:49;;;;;;;17.60;3.08;;;;;;;12.73;74.69;100068.25;5057301;28;20115;-67
2023/03/24 07:22:45;;;;;;;16.92;3.92;;;;;;;12.93;73.04;100082.00;5056439;28;20064;-67
2023/03/24 07:25:35;;;;;;;17.30;2.70;;;;;;;12.85;72.90;100090.41;5048763;28;20052;-65
2023/03/24 07:28:14;;;;;;;16.00;3.15;;;;;;;13.12;72.61;100092.53;5054331;28;20052;-65
2023/03/24 07:30:42;;;;;;;15.60;2.60;;;;;;;12.94;72.04;100093.84;5068526;28;20052;-66
2023/03/24 07:33:11;;;;;;;17.27;2.88;;;;;;;13.24;73.32;100090.56;5069425;28;20060;-66
2023/03/24 07:35:41;;;;;;;20.90;3.08;;;;;;;13.63;81.83;100100.09;5048753;28;20064;-66
2023/03/24 07:38:09;;;;;;;16.30;2.65;;;;;;;14.08;75.24;100086.84;5074820;28;20048;-65
2023/03/24 07:40:37;;;;;;;21.17;3.45;;;;;;;14.21;70.45;100093.13;5064395;28;20055;-65
2023/03/24 07:43:05;;;;;;;20.20;3.47;;;;;;;14.31;67.50;100087.13;5068500;28;20048;-68
2023/03/24 07:45:50;;;;;;;15.63;2.92;;;;;;;14.33;67.37;100093.13;5059375;28;20064;-68
2023/03/24 07:48:17;;;;;;;19.15;3.30;;;;;;;14.54;66.53;100091.72;5071068;28;20051;-68
2023/03/24 07:50:44;;;;;;;17.67;3.35;;;;;;;14.58;66.52;100095.41;5069236;28;20048;-67
2023/03/24 07:53:32;;;;;;;15.57;3.20;;;;;;;14.52;67.78;100079.38;5070264;28;20044;-66
2023/03/24 07:56:01;;;;;;;14.57;3.05;;;;;;;14.80;66.43;100088.47;5044419;28;20068;-67
2023/03/24 07:58:28;;;;;;;15.80;3.00;;;;;;;14.42;64.85;100088.19;5055623;28;20045;-66
2023/03/24 08:01:13;;;;;;;14.05;2.97;;;;;;;14.13;65.47;100091.31;5062894;28;20051;-66
2023/03/24 08:03:44;;;;;;;18.58;3.20;;;;;;;14.21;65.80;100102.22;5071385;28;20377;-65
2023/03/24 08:06:15;;;;;;;25.42;3.75;;;;;;;14.14;66.21;100095.69;5071437;28;20063;-67
2023/03/24 08:08:46;;;;;;;17.10;3.20;;;;;;;13.90;66.70;100113.19;5066802;28;20051;-66
2023/03/24 08:11:13;;;;;;;19.75;3.00;;;;;;;14.08;66.28;100108.19;5070738;28;20494;-66
2023/03/24 08:13:40;;;;;;;25.27;3.88;;;;;;;14.14;65.56;100113.09;5057104;28;20057;-66
2023/03/24 08:16:08;;;;;;;15.93;2.97;;;;;;;14.24;65.21;100107.06;5055042;28;20510;-66
2023/03/24 08:18:35;;;;;;;17.77;3.17;;;;;;;14.27;64.41;100108.38;5055991;28;20562;-65
2023/03/24 08:21:03;;;;;;;21.45;3.28;;;;;;;14.11;63.45;100107.47;5057244;28;20056;-66
2023/03/24 08:23:31;;;;;;;18.80;3.83;;;;;;;14.29;63.30;100106.88;5056962;28;20047;-66
2023/03/24 08:25:58;;;;;;;22.60;3.40;;;;;;;14.17;62.83;100111.59;5051622;28;20063;-66
2023/03/24 08:28:25;;;;;;;17.88;3.58;;;;;;;14.08;64.48;100109.00;5063649;28;20053;-67
2023/03/24 08:30:53;;;;;;;19.73;3.13;;;;;;;14.23;63.59;100116.53;5067437;28;20404;-67
2023/03/24 08:33:20;;;;;;;21.33;3.17;;;;;;;14.40;63.27;100112.72;5066546;28;20055;-66
2023/03/24 08:35:47;;;;;;;17.35;2.90;;;;;;;14.34;62.48;100116.88;5073725;28;20052;-66
2023/03/24 08:38:15;;;;;;;19.23;2.78;;;;;;;14.23;63.22;100126.81;5072400;28;20488;-65
2023/03/24 08:40:46;;;;;;;16.48;3.28;;;;;;;14.18;63.39;100135.38;5072225;28;20531;-66
2023/03/24 08:43:14;;;;;;;19.08;4.13;;;;;;;14.50;62.92;100137.13;5075191;28;20048;-67
2023/03/24 08:45:42;;;;;;;21.67;3.72;;;;;;;14.47;63.12;100132.31;5049066;28;20064;-66
2023/03/24 08:48:10;;;;;;;19.45;3.05;;;;;;;14.63;61.48;100142.25;5065584;28;20408;-67
2023/03/24 08:50:40;;;;;;;;;;;;;;;14.57;62.57;100149.19;5063063;28;20067;-65
2023/03/24 08:53:10;;;;;;;18.17;4.18;;;;;;;14.56;61.81;100147.59;5073898;28;19932;-66
2023/03/24 08:55:40;;;;;;;18.05;3.30;;;;;;;14.67;62.20;100153.44;5063555;28;20052;-66
2023/03/24 08:58:15;;;;;;;19.85;3.05;;;;;;;14.63;61.60;100141.44;5061632;28;20523;-66
2023/03/24 09:00:44;;;;;;;19.30;3.47;;;;;;;14.84;61.04;100160.63;5057673;28;20049;-66
2023/03/24 09:03:16;;;;;;;21.45;3.97;;;;;;;14.92;60.97;100157.72;5067137;28;20044;-67
2023/03/24 09:05:46;;;;;;;17.63;2.85;;;;;;;15.05;60.48;100159.22;5066481;28;20052;-67
2023/03/24 09:08:15;;;;;;;16.80;3.80;;;;;;;15.05;59.80;100167.53;5059875;28;20044;-66
2023/03/24 09:10:45;;;;;;;24.13;4.25;;;;;;;15.03;60.98;100161.53;5060019;28;20048;-65
2023/03/24 09:13:13;;;;;;;20.50;3.30;;;;;;;14.91;60.16;100164.41;5062204;28;20570;-65
2023/03/24 09:15:52;;;;;;;19.70;3.78;;;;;;;14.96;59.65;100172.44;5071462;28;20126;-65
2023/03/24 09:18:20;;;;;;;19.52;3.53;;;;;;;14.95;59.47;100164.50;5078234;28;20036;-65
2023/03/24 09:20:48;;;;;;;21.63;3.00;;;;;;;15.08;59.40;100177.91;5077668;28;20060;-66
2023/03/24 09:23:18;;;;;;;13.80;3.08;;;;;;;14.80;60.20;100174.41;5077028;28;20037;-66
2023/03/24 09:25:47;;;;;;;19.27;3.38;;;;;;;15.04;59.82;100165.94;5068942;28;20067;-66
2023/03/24 09:28:15;;;;;;;17.48;2.60;;;;;;;14.96;59.44;100178.00;5076489;28;20049;-67
2023/03/24 09:30:43;;;;;;;16.73;3.63;;;;;;;14.97;59.47;100173.25;5075618;28;20494;-67
2023/03/24 09:33:10;;;;;;;23.00;3.40;;;;;;;15.27;58.69;100166.13;5077049;28;20055;-66
2023/03/24 09:35:38;;;;;;;17.88;3.78;;;;;;;15.22;57.06;100186.63;5077561;28;20066;-67
2023/03/24 09:38:05;;;;;;;19.00;3.28;;;;;;;15.14;57.26;100167.38;5076779;28;20051;-66
2023/03/24 09:40:38;;;;;;;16.38;3.47;;;;;;;15.41;56.44;100172.88;5077922;28;20049;-67
2023/03/24 09:43:16;;;;;;;18.80;3.78;;;;;;;15.61;55.48;100182.09;5063039;28;20049;-67
2023/03/24 09:45:54;;;;;;;16.05;3.10;;;;;;;15.55;55.21;100189.88;5065540;28;20520;-66
2023/03/24 09:48:38;;;;;;;22.77;3.58;;;;;;;15.47;54.42;100185.31;5052016;28;20158;-66
2023/03/24 09:51:31;;;;;;;19.33;3.30;;;;;;;15.27;55.65;100182.78;5067849;28;20036;-66
2023/03/24 09:54:14;;;;;;;16.60;3.22;;;;;;;15.51;55.79;100191.78;5078338;28;20061;-65
2023/03/24 09:56:44;;;;;;;19.77;3.25;;;;;;;15.82;54.54;100190.09;5063605;28;20914;-66
2023/03/24 09:59:32;;;;;;;19.95;4.25;;;;;;;15.90;54.47;100189.91;5068608;28;20052;-65
2023/03/24 10:01:59;;;;;;;17.52;3.47;;;;;;;15.79;55.23;100192.44;5051640;28;20045;-65
2023/03/24 10:04:28;;;;;;;19.60;3.00;;;;;;;15.86;55.19;100191.00;5064001;28;20048;-65
2023/03/24 10:07:37;;;;;;;19.80;3.03;;;;;;;15.72;54.49;100186.75;5062086;28;20056;-66
2023/03/24 10:10:18;;;;;;;15.90;3.27;;;;;;;15.67;54.74;100194.53;5058364;28;20500;-65
2023/03/24 10:12:47;;;;;;;16.70;3.40;;;;;;;15.48;54.79;100186.13;5081626;28;20415;-65
2023/03/24 10:15:40;;;;;;;18.57;3.20;;;;;;;15.86;54.21;100191.81;5058297;28;20067;-66
2023/03/24 10:18:29;;;;;;;15.18;3.25;;;;;;;15.97;52.54;100192.84;5056038;28;20060;-66
2023/03/24 10:21:07;;;;;;;16.80;3.28;;;;;;;16.21;51.34;100195.41;5062737;28;20064;-67
2023/03/24 10:24:34;;;;;;;16.20;2.83;;;;;;;16.37;49.82;100195.34;5073817;28;20064;-64
2023/03/24 10:27:30;;;;;;;16.83;3.17;;;;;;;16.47;49.93;100194.78;5007380;28;20049;-66
2023/03/24 10:30:15;;;;;;;18.45;3.72;;;;;;;16.38;51.08;100197.75;4991715;28;20057;-65
2023/03/24 10:32:43;;;;;;;18.02;3.38;;;;;;;16.23;51.97;100203.38;5041354;28;21823;-66
2023/03/24 10:35:24;;;;;;;16.52;4.07;;;;;;;16.01;51.81;100207.63;5062023;28;20053;-66
2023/03/24 10:37:51;;;;;;;19.05;3.20;;;;;;;16.13;52.04;100207.50;5063207;28;20537;-67
2023/03/24 10:40:21;;;;;;;16.27;3.85;;;;;;;16.15;52.10;100212.69;5066139;28;20056;-66
2023/03/24 10:42:48;;;;;;;16.13;3.08;;;;;;;16.13;52.71;100203.91;5047350;28;20059;-65
2023/03/24 10:45:35;;;;;;;22.08;3.10;;;;;;;16.59;51.62;100203.00;5066140;28;20057;-67
2023/03/24 10:48:03;;;;;;;19.08;3.20;;;;;;;16.59;51.91;100206.59;5055572;28;20447;-65
2023/03/24 10:50:32;;;;;;;17.50;3.45;;;;;;;16.36;51.67;100208.44;5066788;28;20060;-66
2023/03/24 10:52:59;;;;;;;14.25;3.05;;;;;;;16.35;51.28;100192.91;5065136;28;20411;-66
2023/03/24 10:55:35;;;;;;;13.70;3.40;;;;;;;15.97;52.15;100200.41;5074437;28;20047;-66
2023/03/24 10:58:19;;;;;;;19.63;2.97;;;;;;;16.18;51.93;100198.09;5075711;28;20056;-67
2023/03/24 11:00:46;;;;;;;19.50;3.50;;;;;;;16.46;50.88;100202.31;5053286;28;20063;-66
2023/03/24 11:03:16;;;;;;;13.75;3.03;;;;;;;16.56;50.86;100206.50;5077161;28;20051;-66
2023/03/24 11:05:44;;;;;;;;;;;;;;;16.68;49.99;100215.50;5073021;28;20055;-66
2023/03/24 11:08:36;;;;;;;15.13;2.97;;;;;;;16.36;52.36;100202.88;5066756;28;20283;-65
2023/03/24 11:11:28;;;;;;;17.35;3.85;;;;;;;16.95;51.67;100205.31;5070611;28;20048;-67
2023/03/24 11:14:03;;;;;;;18.77;3.40;;;;;;;17.00;50.07;100205.00;5060984;28;20049;-67
2023/03/24 11:16:35;;;;;;;30.35;11.75;;;;;;;16.61;50.33;100197.88;5050457;28;20044;-67
2023/03/24 11:19:05;;;;;;;15.30;4.13;;;;;;;16.70;50.53;100202.03;5044577;28;20053;-67
2023/03/24 11:21:36;;;;;;;13.32;3.00;;;;;;;16.55;50.80;100208.47;5061864;28;20404;-67
2023/03/24 11:24:13;;;;;;;19.10;3.20;;;;;;;16.31;51.42;100197.59;5065544;28;21662;-68
2023/03/24 11:26:45;;;;;;;13.63;3.42;;;;;;;16.53;50.94;100198.88;5047026;28;20056;-69
2023/03/24 11:29:13;;;;;;;13.80;3.20;;;;;;;16.34;50.08;100194.09;5071939;28;20057;-67
2023/03/24 11:31:41;;;;;;;12.45;3.38;;;;;;;17.01;49.06;100192.72;5042952;28;20045;-66
2023/03/24 11:34:24;;;;;;;14.60;3.03;;;;;;;17.40;49.09;100191.41;5055118;28;20412;-68
2023/03/24 11:36:55;;;;;;;20.15;3.08;;;;;;;17.32;48.81;100200.84;5057710;28;20052;-67
2023/03/24 11:39:31;;;;;;;15.57;3.25;;;;;;;17.49;48.18;100188.41;5055110;28;20056;-66
2023/03/24 11:42:11;;;;;;;14.45;2.95;;;;;;;17.60;48.07;100194.97;5065046;28;20053;-67
2023/03/24 11:44:38;;;;;;;15.40;3.03;;;;;;;17.25;48.59;100191.53;5067823;28;20040;-68
2023/03/24 11:47:15;;;;;;;13.15;2.85;;;;;;;17.36;48.70;100204.50;5070011;28;20040;-66
2023/03/24 11:49:54;;;;;;;12.77;2.90;;;;;;;17.49;47.85;100189.22;5069101;28;20053;-66
2023/03/24 11:52:27;;;;;;;16.95;4.25;;;;;;;17.17;47.59;100207.31;5062446;28;20052;-65
2023/03/24 11:54:55;;;;;;;16.08;3.50;;;;;;;16.90;48.40;100216.72;5049381;28;20064;-65
2023/03/24 11:57:45;;;;;;;12.38;2.55;;;;;;;16.92;48.01;100205.22;5071936;28;20051;-65
2023/03/24 12:00:32;;;;;;;13.85;3.60;;;;;;;16.85;48.67;100223.41;5062824;28;20056;-67
2023/03/24 12:03:30;;;;;;;15.07;3.50;;;;;;;16.95;49.55;100218.41;5066570;28;20459;-67